Elloree, South Carolina
Current Conditions -  °F | °C
As of 2:53 AM on Sunday 21 Dec 2014 (Local Time) from KOGB Reporting Station
Overcast Overcast  
Wind Chill: 41°   Ceiling: 6000
Heat Index: 45°   Visibility: 9mi
Dew Point: 40°   Wind: 7mph
Humidity: 82%   Direction: 30°NNE
Pressure: 30.22"   Gusts: NA
Location:  33.53°N, 80.57°W
Report Text: KOGB 210753Z AUTO 03006KT 9SM OVC060 07/04 A3022 RMK AO2 SLP233 T00720044
Loading
Personal Weather Stations






























Interactive Weather Map New forecast layout! Learn more

10-Day Weather Forecast

Advertisements
Track Severe Weather on mobile